Time;durP1;ratioP1;P1;durP2;ratioP2;P2;SDS_P1;SDS_P2;PMS_P1;PMS_P2;Temp;Humidity;BMP_temperature;BMP_pressure;BME280_temperature;BME280_humidity;BME280_pressure;Samples;Min_cycle;Max_cycle;Signal;HPM_P1;HPM_P2
2022/09/15 00:00:09;;;;;;;;;37.33;34.00;;;;;;;;4919174;28;45577;-72
2022/09/15 00:02:34;;;;;;;;;35.33;32.00;;;;;;;;4906055;28;45632;-72
2022/09/15 00:04:59;;;;;;;;;49.33;37.00;;;;;;;;4919755;28;46357;-72
2022/09/15 00:07:24;;;;;;;;;37.00;32.67;;;;;;;;4919766;28;45510;-72
2022/09/15 00:09:50;;;;;;;;;46.00;35.33;;;;;;;;4919619;28;45498;-72
2022/09/15 00:12:15;;;;;;;;;37.00;30.67;;;;;;;;4902767;28;45464;-72
2022/09/15 00:14:41;;;;;;;;;36.00;34.33;;;;;;;;4914636;28;46680;-72
2022/09/15 00:17:06;;;;;;;;;36.00;34.00;;;;;;;;4900715;29;45478;-73
2022/09/15 00:19:31;;;;;;;;;38.00;34.33;;;;;;;;4901720;29;45433;-73
2022/09/15 00:21:56;;;;;;;;;39.33;34.67;;;;;;;;4915473;28;45393;-73
2022/09/15 00:24:22;;;;;;;;;33.67;32.67;;;;;;;;4920484;28;45627;-73
2022/09/15 00:26:47;;;;;;;;;41.33;34.33;;;;;;;;4920561;28;45603;-72
2022/09/15 00:29:12;;;;;;;;;39.33;34.00;;;;;;;;4920722;28;45467;-73
2022/09/15 00:31:37;;;;;;;;;40.67;34.67;;;;;;;;4919731;28;45479;-72
2022/09/15 00:34:03;;;;;;;;;39.33;34.67;;;;;;;;4920305;28;45375;-72
2022/09/15 00:36:28;;;;;;;;;36.67;31.67;;;;;;;;4920472;28;45495;-73
2022/09/15 00:38:54;;;;;;;;;44.00;34.67;;;;;;;;4920291;28;45249;-72
2022/09/15 00:41:20;;;;;;;;;45.00;36.33;;;;;;;;4919401;28;45464;-73
2022/09/15 00:43:50;;;;;;;;;42.33;36.67;;;;;;;;4920051;28;46515;-73
2022/09/15 00:46:16;;;;;;;;;39.00;34.67;;;;;;;;4920026;28;45429;-72
2022/09/15 00:48:48;;;;;;;;;29.00;27.67;;;;;;;;4919165;28;45306;-73
2022/09/15 00:51:15;;;;;;;;;34.67;30.67;;;;;;;;4920312;28;45397;-73
2022/09/15 00:53:41;;;;;;;;;31.33;31.00;;;;;;;;4919798;28;45412;-73
2022/09/15 00:56:08;;;;;;;;;32.33;30.67;;;;;;;;4920001;28;45435;-72
2022/09/15 00:58:37;;;;;;;;;27.00;24.67;;;;;;;;4919992;28;45363;-72
2022/09/15 01:01:03;;;;;;;;;28.33;27.33;;;;;;;;4920343;28;45528;-72
2022/09/15 01:03:31;;;;;;;;;35.33;30.00;;;;;;;;4919817;28;45401;-73
2022/09/15 01:05:59;;;;;;;;;26.00;26.00;;;;;;;;4918153;28;45309;-72
2022/09/15 01:08:37;;;;;;;;;36.67;33.00;;;;;;;;4920142;28;45375;-73
2022/09/15 01:11:03;;;;;;;;;35.67;31.00;;;;;;;;4920171;28;45483;-72
2022/09/15 01:13:28;;;;;;;;;37.00;29.00;;;;;;;;4919651;28;46504;-72
2022/09/15 01:15:56;;;;;;;;;36.00;32.67;;;;;;;;4919784;28;45455;-73
2022/09/15 01:18:27;;;;;;;;;36.67;29.00;;;;;;;;4920089;28;45383;-73
2022/09/15 01:20:55;;;;;;;;;33.00;31.00;;;;;;;;4914340;28;45463;-74
2022/09/15 01:23:39;;;;;;;;;33.67;29.67;;;;;;;;4895124;29;46284;-74
2022/09/15 01:26:07;;;;;;;;;38.00;34.67;;;;;;;;4881732;29;45369;-74
2022/09/15 01:28:38;;;;;;;;;34.33;29.67;;;;;;;;4881918;29;45447;-73
2022/09/15 01:31:04;;;;;;;;;35.67;31.33;;;;;;;;4881785;29;45444;-73
2022/09/15 01:33:44;;;;;;;;;31.67;28.00;;;;;;;;4881642;29;45396;-73
2022/09/15 01:36:17;;;;;;;;;41.33;34.67;;;;;;;;4881427;29;45389;-73
2022/09/15 01:38:48;;;;;;;;;37.00;33.00;;;;;;;;4881730;29;45269;-73
2022/09/15 01:41:15;;;;;;;;;38.00;32.67;;;;;;;;4881732;29;45480;-74
2022/09/15 01:43:55;;;;;;;;;36.00;31.67;;;;;;;;4881477;29;46756;-74
2022/09/15 01:46:23;;;;;;;;;35.33;31.67;;;;;;;;4881149;29;45295;-74
2022/09/15 01:48:51;;;;;;;;;27.67;26.67;;;;;;;;4881507;29;45455;-73
2022/09/15 01:51:16;;;;;;;;;33.00;29.67;;;;;;;;4881763;29;45796;-73
2022/09/15 01:53:42;;;;;;;;;35.67;33.33;;;;;;;;4884656;29;46082;-73
2022/09/15 01:56:09;;;;;;;;;40.33;33.33;;;;;;;;4897737;29;45503;-73
2022/09/15 01:58:36;;;;;;;;;34.33;31.00;;;;;;;;4903701;28;45382;-73
2022/09/15 02:01:17;;;;;;;;;23.33;21.33;;;;;;;;4903524;28;45487;-73
2022/09/15 02:03:43;;;;;;;;;31.33;28.00;;;;;;;;4903337;29;46310;-73
2022/09/15 02:06:13;;;;;;;;;35.33;28.33;;;;;;;;4903375;28;45451;-73
2022/09/15 02:08:46;;;;;;;;;29.67;28.33;;;;;;;;4903596;28;45458;-73
2022/09/15 02:11:11;;;;;;;;;33.00;28.67;;;;;;;;4903406;28;45457;-73
2022/09/15 02:13:47;;;;;;;;;38.33;33.00;;;;;;;;4902370;28;45458;-73
2022/09/15 02:16:23;;;;;;;;;29.33;27.00;;;;;;;;4901537;29;45406;-73
2022/09/15 02:18:55;;;;;;;;;34.00;33.00;;;;;;;;4903393;28;45445;-73
2022/09/15 02:21:22;;;;;;;;;36.33;34.00;;;;;;;;4903369;28;45428;-74
2022/09/15 02:23:49;;;;;;;;;33.33;32.33;;;;;;;;4903086;28;46406;-73
2022/09/15 02:26:18;;;;;;;;;40.33;35.00;;;;;;;;4902996;28;45424;-73
2022/09/15 02:28:45;;;;;;;;;40.00;32.00;;;;;;;;4902401;28;45387;-73
2022/09/15 02:31:12;;;;;;;;;30.67;29.67;;;;;;;;4903493;28;45427;-73
2022/09/15 02:33:40;;;;;;;;;34.67;27.67;;;;;;;;4902973;28;45349;-73
2022/09/15 02:36:05;;;;;;;;;36.33;29.33;;;;;;;;4903098;28;45484;-74
2022/09/15 02:38:33;;;;;;;;;33.33;29.00;;;;;;;;4903130;28;45504;-74
2022/09/15 02:41:00;;;;;;;;;38.67;34.67;;;;;;;;4903353;28;45509;-74
2022/09/15 02:43:25;;;;;;;;;34.00;29.33;;;;;;;;4902768;28;45455;-72
2022/09/15 02:45:51;;;;;;;;;32.33;31.00;;;;;;;;4902075;28;45411;-74
2022/09/15 02:48:16;;;;;;;;;31.00;27.00;;;;;;;;4903089;29;45360;-74
2022/09/15 02:50:41;;;;;;;;;30.00;29.00;;;;;;;;4903087;29;45646;-74
2022/09/15 02:53:07;;;;;;;;;35.67;28.00;;;;;;;;4902909;29;45488;-74
2022/09/15 02:55:33;;;;;;;;;26.33;26.33;;;;;;;;4902506;28;45520;-74
2022/09/15 02:57:58;;;;;;;;;36.67;30.67;;;;;;;;4903077;28;45803;-73
2022/09/15 03:00:24;;;;;;;;;33.00;30.33;;;;;;;;4902996;29;45506;-73
2022/09/15 03:02:50;;;;;;;;;40.00;35.00;;;;;;;;4902040;28;45527;-74
2022/09/15 03:05:17;;;;;;;;;35.67;30.67;;;;;;;;4902246;28;45468;-74
2022/09/15 03:07:42;;;;;;;;;36.00;31.33;;;;;;;;4902643;28;45381;-74
2022/09/15 03:10:08;;;;;;;;;30.67;26.33;;;;;;;;4902852;29;45365;-72
2022/09/15 03:12:37;;;;;;;;;29.00;24.33;;;;;;;;4902639;28;46749;-73
2022/09/15 03:15:03;;;;;;;;;36.67;30.00;;;;;;;;4902365;28;45420;-73
2022/09/15 03:17:32;;;;;;;;;35.33;30.00;;;;;;;;4902510;28;45411;-73
2022/09/15 03:19:57;;;;;;;;;29.00;26.67;;;;;;;;4902774;28;45337;-72
2022/09/15 03:22:23;;;;;;;;;31.00;29.00;;;;;;;;4902088;28;45401;-73
2022/09/15 03:24:48;;;;;;;;;32.00;27.33;;;;;;;;4902147;29;45360;-73
2022/09/15 03:27:13;;;;;;;;;32.67;29.00;;;;;;;;4902315;29;45338;-74
2022/09/15 03:29:39;;;;;;;;;36.00;30.00;;;;;;;;4902568;29;45377;-74
2022/09/15 03:32:04;;;;;;;;;29.33;27.33;;;;;;;;4902316;29;45230;-74
2022/09/15 03:34:29;;;;;;;;;31.33;28.00;;;;;;;;4902121;28;45172;-74
2022/09/15 03:36:55;;;;;;;;;28.33;24.33;;;;;;;;4902353;28;45353;-73
2022/09/15 03:39:20;;;;;;;;;34.00;29.00;;;;;;;;4902634;29;45365;-73
2022/09/15 03:41:45;;;;;;;;;37.33;31.33;;;;;;;;4901960;29;45380;-73
2022/09/15 03:44:10;;;;;;;;;36.00;32.33;;;;;;;;4902000;28;45399;-73
2022/09/15 03:46:35;;;;;;;;;37.00;30.00;;;;;;;;4902034;29;45625;-73
2022/09/15 03:49:01;;;;;;;;;39.67;36.33;;;;;;;;4902503;29;45483;-73
2022/09/15 03:51:26;;;;;;;;;42.33;32.67;;;;;;;;4901910;28;45297;-73
2022/09/15 03:53:51;;;;;;;;;35.33;30.00;;;;;;;;4901925;28;45436;-73
2022/09/15 03:56:22;;;;;;;;;34.33;29.67;;;;;;;;4901781;29;45279;-72
2022/09/15 03:58:47;;;;;;;;;36.67;31.67;;;;;;;;4901981;29;45170;-72
2022/09/15 04:01:13;;;;;;;;;32.00;28.00;;;;;;;;4901904;28;45388;-72
2022/09/15 04:03:38;;;;;;;;;32.67;31.67;;;;;;;;4901741;29;45366;-72
2022/09/15 04:06:04;;;;;;;;;36.67;32.67;;;;;;;;4901874;28;45293;-73
2022/09/15 04:08:29;;;;;;;;;37.33;30.67;;;;;;;;4902109;29;45338;-72
2022/09/15 04:10:54;;;;;;;;;41.67;31.67;;;;;;;;4901273;29;45542;-72
2022/09/15 04:13:20;;;;;;;;;38.00;32.00;;;;;;;;4901776;29;45301;-72
2022/09/15 04:15:45;;;;;;;;;39.33;35.33;;;;;;;;4901273;28;45306;-71
2022/09/15 04:18:10;;;;;;;;;36.00;30.33;;;;;;;;4901599;29;45461;-72
2022/09/15 04:20:37;;;;;;;;;31.33;29.33;;;;;;;;4901310;28;45637;-71
2022/09/15 04:23:02;;;;;;;;;30.67;27.00;;;;;;;;4901318;28;45384;-71
2022/09/15 04:25:28;;;;;;;;;29.33;28.00;;;;;;;;4901485;29;45501;-71
2022/09/15 04:27:54;;;;;;;;;52.00;41.33;;;;;;;;4901691;29;45420;-72
2022/09/15 04:30:20;;;;;;;;;33.33;30.67;;;;;;;;4901397;28;45444;-71
2022/09/15 04:32:45;;;;;;;;;32.33;28.00;;;;;;;;4901460;29;45463;-72
2022/09/15 04:35:11;;;;;;;;;42.33;34.67;;;;;;;;4901403;29;45408;-72
2022/09/15 04:37:36;;;;;;;;;37.33;28.33;;;;;;;;4901678;29;45436;-72
2022/09/15 04:40:02;;;;;;;;;30.00;29.00;;;;;;;;4901236;29;46198;-72
2022/09/15 04:42:27;;;;;;;;;32.00;29.67;;;;;;;;4900985;29;45494;-72
2022/09/15 04:44:52;;;;;;;;;35.33;29.33;;;;;;;;4901610;29;45645;-72
2022/09/15 04:47:18;;;;;;;;;28.67;25.00;;;;;;;;4901448;28;45685;-72
2022/09/15 04:49:43;;;;;;;;;24.00;21.33;;;;;;;;4900902;28;46475;-71
2022/09/15 04:52:08;;;;;;;;;33.67;29.33;;;;;;;;4901112;29;45503;-71
2022/09/15 04:54:34;;;;;;;;;31.67;23.67;;;;;;;;4900879;29;45595;-72
2022/09/15 04:56:59;;;;;;;;;32.67;27.67;;;;;;;;4901308;28;45511;-72
2022/09/15 04:59:25;;;;;;;;;29.33;26.33;;;;;;;;4900740;29;45446;-72
2022/09/15 05:01:52;;;;;;;;;33.33;30.67;;;;;;;;4900645;29;45365;-72
2022/09/15 05:04:17;;;;;;;;;23.00;19.00;;;;;;;;4901056;29;45448;-72
2022/09/15 05:06:43;;;;;;;;;30.00;26.33;;;;;;;;4901251;29;45434;-72
2022/09/15 05:09:11;;;;;;;;;30.00;24.67;;;;;;;;4900528;29;47126;-71
2022/09/15 05:11:37;;;;;;;;;34.33;25.00;;;;;;;;4900419;28;45557;-72
2022/09/15 05:14:02;;;;;;;;;30.67;30.00;;;;;;;;4901077;28;45350;-72
2022/09/15 05:16:28;;;;;;;;;33.67;30.00;;;;;;;;4900933;28;45649;-72
2022/09/15 05:18:55;;;;;;;;;141.33;134.67;;;;;;;;4900697;28;47223;-72
2022/09/15 05:21:21;;;;;;;;;41.33;31.00;;;;;;;;4900647;28;45234;-71
2022/09/15 05:23:47;;;;;;;;;43.33;35.33;;;;;;;;4900575;28;45373;-70
2022/09/15 05:26:16;;;;;;;;;35.67;31.33;;;;;;;;4899991;28;45446;-70
2022/09/15 05:28:42;;;;;;;;;32.33;30.33;;;;;;;;4900448;28;45456;-70
2022/09/15 05:31:17;;;;;;;;;33.67;30.67;;;;;;;;4900498;29;45369;-70
2022/09/15 05:33:43;;;;;;;;;35.67;28.67;;;;;;;;4900759;28;45415;-70
2022/09/15 05:36:09;;;;;;;;;34.67;32.33;;;;;;;;4900424;29;45527;-70
2022/09/15 05:38:34;;;;;;;;;30.33;27.67;;;;;;;;4900338;29;46074;-70
2022/09/15 05:41:25;;;;;;;;;31.67;25.67;;;;;;;;4900490;29;45246;-70
2022/09/15 05:43:52;;;;;;;;;30.00;24.00;;;;;;;;4897600;28;45600;-70
2022/09/15 05:46:17;;;;;;;;;31.00;28.33;;;;;;;;4900655;28;45341;-70
2022/09/15 05:48:43;;;;;;;;;32.33;29.00;;;;;;;;4900227;28;46485;-69
2022/09/15 05:51:09;;;;;;;;;40.00;32.33;;;;;;;;4900311;29;45230;-70
2022/09/15 05:53:35;;;;;;;;;30.33;29.00;;;;;;;;4900158;29;45360;-70
2022/09/15 05:56:01;;;;;;;;;31.67;28.67;;;;;;;;4900202;28;45442;-70
2022/09/15 05:58:27;;;;;;;;;28.33;27.33;;;;;;;;4900184;28;46435;-70
2022/09/15 06:00:53;;;;;;;;;30.33;28.67;;;;;;;;4899779;29;45482;-70
2022/09/15 06:03:18;;;;;;;;;30.67;28.67;;;;;;;;4899113;29;45520;-69
2022/09/15 06:05:44;;;;;;;;;45.33;39.33;;;;;;;;4900345;28;45464;-69
2022/09/15 06:08:09;;;;;;;;;35.00;29.00;;;;;;;;4900017;29;45456;-72
2022/09/15 06:10:34;;;;;;;;;37.33;28.00;;;;;;;;4900092;28;45548;-72
2022/09/15 06:12:59;;;;;;;;;28.33;28.33;;;;;;;;4900094;29;45406;-72
2022/09/15 06:15:25;;;;;;;;;35.00;28.67;;;;;;;;4900272;29;45406;-72
2022/09/15 06:17:50;;;;;;;;;32.00;27.33;;;;;;;;4899887;29;45763;-71
2022/09/15 06:20:15;;;;;;;;;34.33;31.67;;;;;;;;4900171;29;45313;-71
2022/09/15 06:22:40;;;;;;;;;27.00;24.00;;;;;;;;4900098;28;45348;-72
2022/09/15 06:25:06;;;;;;;;;31.00;29.67;;;;;;;;4900375;29;45412;-72
2022/09/15 06:27:31;;;;;;;;;38.67;36.33;;;;;;;;4899736;29;46374;-72
2022/09/15 06:29:57;;;;;;;;;37.67;33.67;;;;;;;;4899843;28;45425;-71
2022/09/15 06:32:22;;;;;;;;;37.33;31.00;;;;;;;;4899979;29;45496;-72
2022/09/15 06:34:47;;;;;;;;;28.67;26.33;;;;;;;;4899834;28;45341;-71
2022/09/15 06:37:12;;;;;;;;;32.33;27.33;;;;;;;;4899800;29;45536;-72
2022/09/15 06:39:38;;;;;;;;;28.67;26.67;;;;;;;;4903141;29;45298;-72
2022/09/15 06:42:03;;;;;;;;;30.33;24.00;;;;;;;;4902873;28;45331;-71
2022/09/15 06:44:28;;;;;;;;;42.00;33.33;;;;;;;;4903246;29;45527;-71
2022/09/15 06:46:53;;;;;;;;;34.00;27.00;;;;;;;;4902969;29;46154;-71
2022/09/15 06:49:19;;;;;;;;;22.00;20.00;;;;;;;;4902852;29;45153;-72
2022/09/15 06:51:44;;;;;;;;;28.33;24.33;;;;;;;;4902884;28;45452;-71
2022/09/15 06:54:10;;;;;;;;;31.00;28.00;;;;;;;;4903054;29;45310;-71
2022/09/15 06:56:36;;;;;;;;;29.67;27.33;;;;;;;;4902517;29;45624;-71
2022/09/15 06:59:02;;;;;;;;;25.33;24.00;;;;;;;;4902452;29;45389;-71
2022/09/15 07:01:28;;;;;;;;;22.33;20.67;;;;;;;;4903138;28;45251;-71
2022/09/15 07:03:56;;;;;;;;;19.67;16.33;;;;;;;;4902857;28;45289;-71
2022/09/15 07:06:22;;;;;;;;;16.00;11.67;;;;;;;;4902582;28;46343;-71
2022/09/15 07:08:48;;;;;;;;;17.33;17.33;;;;;;;;4902571;28;45365;-73
2022/09/15 07:11:14;;;;;;;;;16.33;15.00;;;;;;;;4902608;28;45909;-71
2022/09/15 07:13:39;;;;;;;;;10.67;10.67;;;;;;;;4902705;29;45301;-71
2022/09/15 07:16:06;;;;;;;;;24.67;21.33;;;;;;;;4902246;28;46468;-72
2022/09/15 07:18:31;;;;;;;;;14.33;12.33;;;;;;;;4902564;28;45364;-68
2022/09/15 07:20:57;;;;;;;;;15.00;9.33;;;;;;;;4902460;28;45528;-71
2022/09/15 07:23:22;;;;;;;;;12.00;9.00;;;;;;;;4902643;28;45242;-72
2022/09/15 07:25:48;;;;;;;;;10.00;10.00;;;;;;;;4902449;29;45356;-71
2022/09/15 07:28:13;;;;;;;;;10.33;10.33;;;;;;;;4902246;29;45514;-72
2022/09/15 07:30:39;;;;;;;;;14.67;11.00;;;;;;;;4902378;28;45488;-72
2022/09/15 07:33:09;;;;;;;;;14.00;14.00;;;;;;;;4902655;28;45434;-72
2022/09/15 07:35:34;;;;;;;;;12.00;11.67;;;;;;;;4901946;28;46420;-72
2022/09/15 07:37:59;;;;;;;;;10.00;7.33;;;;;;;;4902443;29;45190;-72
2022/09/15 07:40:25;;;;;;;;;8.67;7.00;;;;;;;;4902322;29;45230;-71
2022/09/15 07:42:50;;;;;;;;;6.67;6.67;;;;;;;;4901723;28;45230;-72
2022/09/15 07:45:16;;;;;;;;;10.75;8.75;;;;;;;;4901777;28;46272;-72
2022/09/15 07:47:41;;;;;;;;;6.00;6.00;;;;;;;;4901689;29;45237;-73
2022/09/15 07:50:06;;;;;;;;;8.25;7.00;;;;;;;;4901495;29;45289;-71
2022/09/15 07:52:32;;;;;;;;;14.25;9.25;;;;;;;;4900687;29;45346;-72
2022/09/15 07:54:57;;;;;;;;;7.75;6.75;;;;;;;;4900946;29;45451;-72
2022/09/15 07:57:22;;;;;;;;;9.33;8.33;;;;;;;;4901922;28;45372;-72
2022/09/15 07:59:48;;;;;;;;;10.33;9.00;;;;;;;;4901821;29;45471;-72
2022/09/15 08:02:15;;;;;;;;;11.00;7.67;;;;;;;;4902329;28;45411;-72
2022/09/15 08:04:40;;;;;;;;;9.00;8.00;;;;;;;;4901701;28;46611;-73
2022/09/15 08:07:05;;;;;;;;;9.25;7.00;;;;;;;;4901328;29;45271;-72
2022/09/15 08:09:30;;;;;;;;;9.33;7.67;;;;;;;;4902026;29;45356;-73
2022/09/15 08:11:55;;;;;;;;;3.25;3.25;;;;;;;;4901710;29;45364;-72
2022/09/15 08:14:21;;;;;;;;;10.50;5.50;;;;;;;;4901495;29;46181;-72
2022/09/15 08:16:46;;;;;;;;;7.75;5.75;;;;;;;;4901410;29;45451;-72
2022/09/15 08:19:11;;;;;;;;;5.00;2.75;;;;;;;;4901463;29;45417;-73
2022/09/15 08:21:36;;;;;;;;;4.00;2.25;;;;;;;;4901736;28;45444;-73
2022/09/15 08:24:02;;;;;;;;;4.50;3.25;;;;;;;;4899988;29;46264;-73
2022/09/15 08:26:28;;;;;;;;;3.75;3.50;;;;;;;;4901593;29;45443;-73
2022/09/15 08:28:53;;;;;;;;;3.00;3.00;;;;;;;;4901592;28;45405;-72
2022/09/15 08:31:18;;;;;;;;;2.75;2.75;;;;;;;;4901407;29;45506;-72
2022/09/15 08:33:51;;;;;;;;;2.00;2.00;;;;;;;;4901161;29;46250;-73
2022/09/15 08:36:17;;;;;;;;;1.00;1.00;;;;;;;;4901230;28;45409;-72
2022/09/15 08:38:43;;;;;;;;;1.50;1.50;;;;;;;;4901334;28;45416;-72
2022/09/15 08:41:32;;;;;;;;;2.25;2.25;;;;;;;;4901566;29;45570;-72
2022/09/15 08:44:00;;;;;;;;;4.00;3.00;;;;;;;;4842617;29;46411;-72
2022/09/15 08:46:28;;;;;;;;;3.00;2.00;;;;;;;;4842740;29;45517;-73
2022/09/15 08:48:59;;;;;;;;;4.50;2.00;;;;;;;;4842671;29;45490;-72
2022/09/15 08:51:29;;;;;;;;;5.00;4.67;;;;;;;;4843229;29;45398;-73
2022/09/15 08:53:58;;;;;;;;;1.75;1.75;;;;;;;;4842286;29;45570;-73
2022/09/15 08:56:25;;;;;;;;;2.25;2.00;;;;;;;;4842658;29;45838;-72
2022/09/15 08:58:50;;;;;;;;;1.00;1.00;;;;;;;;4842515;29;45491;-72
2022/09/15 09:01:27;;;;;;;;;3.25;3.25;;;;;;;;4841813;29;45447;-72
2022/09/15 09:03:58;;;;;;;;;2.75;1.00;;;;;;;;4842740;29;46386;-72
2022/09/15 09:06:38;;;;;;;;;2.25;2.25;;;;;;;;4842991;29;45524;-69
2022/09/15 09:09:07;;;;;;;;;3.00;3.00;;;;;;;;4842336;29;45384;-72
2022/09/15 09:11:40;;;;;;;;;2.00;2.00;;;;;;;;4842864;29;45627;-72
2022/09/15 09:14:15;;;;;;;;;2.00;1.00;;;;;;;;4842302;29;46443;-72
2022/09/15 09:16:58;;;;;;;;;1.00;0.00;;;;;;;;4842390;29;45481;-72
2022/09/15 09:19:44;;;;;;;;;2.75;1.00;;;;;;;;4842608;29;45601;-73
2022/09/15 09:22:30;;;;;;;;;1.00;1.00;;;;;;;;4860081;29;45605;-72
2022/09/15 09:24:57;;;;;;;;;1.25;0.50;;;;;;;;4860602;29;47360;-72
2022/09/15 09:27:23;;;;;;;;;3.00;1.00;;;;;;;;4860557;29;45626;-72
2022/09/15 09:29:59;;;;;;;;;1.00;1.00;;;;;;;;4860921;29;45546;-73
2022/09/15 09:32:25;;;;;;;;;2.00;0.25;;;;;;;;4860871;29;45673;-72
2022/09/15 09:34:59;;;;;;;;;1.25;1.00;;;;;;;;4860624;29;45654;-72
2022/09/15 09:37:25;;;;;;;;;2.00;2.00;;;;;;;;4860795;29;45441;-72
2022/09/15 09:39:51;;;;;;;;;2.67;1.67;;;;;;;;4861070;29;45386;-72
2022/09/15 09:42:17;;;;;;;;;1.75;1.25;;;;;;;;4861130;29;45444;-72
2022/09/15 09:44:43;;;;;;;;;1.25;1.00;;;;;;;;4860451;29;46675;-72
2022/09/15 09:47:08;;;;;;;;;1.00;1.00;;;;;;;;4860640;29;45451;-73
2022/09/15 09:49:37;;;;;;;;;5.00;3.00;;;;;;;;4861062;29;45476;-72
2022/09/15 09:52:03;;;;;;;;;2.00;2.00;;;;;;;;4860873;29;45575;-72
2022/09/15 09:54:30;;;;;;;;;3.33;1.00;;;;;;;;4860214;29;47265;-72
2022/09/15 09:57:15;;;;;;;;;1.75;1.75;;;;;;;;4860461;29;45406;-73
2022/09/15 09:59:42;;;;;;;;;1.00;1.00;;;;;;;;4880603;29;45499;-73
2022/09/15 10:02:10;;;;;;;;;2.25;1.00;;;;;;;;4900322;29;45546;-72
2022/09/15 10:04:43;;;;;;;;;0.50;0.50;;;;;;;;4900227;28;46562;-71
2022/09/15 10:07:08;;;;;;;;;0.00;0.00;;;;;;;;4900087;28;45469;-71
2022/09/15 10:09:35;;;;;;;;;2.00;2.00;;;;;;;;4900103;28;45457;-71
2022/09/15 10:12:02;;;;;;;;;2.33;1.33;;;;;;;;4900437;28;45376;-71
2022/09/15 10:14:29;;;;;;;;;4.33;3.33;;;;;;;;4902935;28;46656;-71
2022/09/15 10:17:03;;;;;;;;;1.00;1.00;;;;;;;;4903360;28;45479;-71
2022/09/15 10:19:34;;;;;;;;;1.00;1.00;;;;;;;;4903614;28;45367;-70
2022/09/15 10:22:00;;;;;;;;;0.75;0.75;;;;;;;;4903536;28;45369;-70
2022/09/15 10:24:25;;;;;;;;;2.00;0.75;;;;;;;;4901764;28;48198;-70
2022/09/15 10:26:51;;;;;;;;;1.00;1.00;;;;;;;;4903424;29;45212;-70
2022/09/15 10:29:16;;;;;;;;;1.25;1.25;;;;;;;;4903396;29;45435;-70
2022/09/15 10:31:43;;;;;;;;;1.00;1.00;;;;;;;;4903448;28;45385;-70
2022/09/15 10:34:31;;;;;;;;;0.25;0.25;;;;;;;;4903192;28;46411;-70
2022/09/15 10:37:05;;;;;;;;;0.50;0.50;;;;;;;;4903291;28;45435;-70
2022/09/15 10:39:33;;;;;;;;;1.50;0.50;;;;;;;;4903218;28;45468;-69
2022/09/15 10:42:07;;;;;;;;;1.00;1.00;;;;;;;;4902098;29;45366;-70
2022/09/15 10:44:41;;;;;;;;;0.00;0.00;;;;;;;;4902770;29;45536;-71
2022/09/15 10:47:15;;;;;;;;;1.25;1.00;;;;;;;;4903016;29;45448;-70
2022/09/15 10:49:40;;;;;;;;;0.00;0.00;;;;;;;;4903050;28;45535;-69
2022/09/15 10:52:21;;;;;;;;;3.00;1.00;;;;;;;;4903277;29;45487;-70
2022/09/15 10:54:46;;;;;;;;;3.67;2.00;;;;;;;;4902919;28;46756;-70
2022/09/15 10:57:30;;;;;;;;;5.33;3.67;;;;;;;;4902918;29;45308;-70
2022/09/15 11:00:01;;;;;;;;;2.75;0.00;;;;;;;;4902874;28;45467;-71
2022/09/15 11:02:45;;;;;;;;;0.00;0.00;;;;;;;;4903336;28;45597;-71
2022/09/15 11:05:21;;;;;;;;;2.00;1.25;;;;;;;;4902741;29;45432;-71
2022/09/15 11:07:46;;;;;;;;;2.00;0.75;;;;;;;;4902921;28;45547;-71
2022/09/15 11:10:11;;;;;;;;;2.00;1.00;;;;;;;;4902666;29;45369;-71
2022/09/15 11:12:55;;;;;;;;;1.00;0.00;;;;;;;;4903202;29;45335;-71
2022/09/15 11:15:32;;;;;;;;;0.00;0.00;;;;;;;;4902661;28;46558;-71
2022/09/15 11:18:06;;;;;;;;;1.00;1.00;;;;;;;;4902668;28;45726;-71
2022/09/15 11:20:46;;;;;;;;;2.00;0.50;;;;;;;;4901066;28;45538;-71
2022/09/15 11:23:18;;;;;;;;;1.75;1.75;;;;;;;;4901244;29;45476;-71
2022/09/15 11:25:46;;;;;;;;;2.00;0.50;;;;;;;;4901611;29;45470;-71
2022/09/15 11:28:16;;;;;;;;;4.50;1.75;;;;;;;;4902270;28;45305;-72
2022/09/15 11:30:45;;;;;;;;;2.00;2.00;;;;;;;;4902555;28;45341;-71
2022/09/15 11:33:15;;;;;;;;;0.00;0.00;;;;;;;;4902659;28;45411;-71
2022/09/15 11:35:59;;;;;;;;;1.00;1.00;;;;;;;;4902161;28;46242;-71
2022/09/15 11:38:47;;;;;;;;;3.00;1.00;;;;;;;;4902286;28;45501;-71
2022/09/15 11:41:12;;;;;;;;;2.50;0.75;;;;;;;;4902315;28;45423;-71
2022/09/15 11:43:50;;;;;;;;;0.75;0.75;;;;;;;;4902403;29;45453;-71
2022/09/15 11:46:19;;;;;;;;;1.75;1.75;;;;;;;;4901954;29;45405;-71
2022/09/15 11:48:49;;;;;;;;;2.00;1.25;;;;;;;;4902210;28;45441;-71
2022/09/15 11:51:18;;;;;;;;;1.00;1.00;;;;;;;;4902245;28;45353;-71
2022/09/15 11:53:57;;;;;;;;;1.00;1.00;;;;;;;;4902554;28;45464;-71
2022/09/15 11:56:28;;;;;;;;;4.00;1.00;;;;;;;;4902024;29;46412;-71
2022/09/15 11:58:56;;;;;;;;;1.50;1.00;;;;;;;;4901413;28;45428;-71
2022/09/15 12:01:28;;;;;;;;;0.00;0.00;;;;;;;;4902030;29;45513;-71
2022/09/15 12:03:53;;;;;;;;;1.50;1.00;;;;;;;;4902180;28;45401;-71
2022/09/15 12:06:18;;;;;;;;;0.25;0.00;;;;;;;;4901870;29;45344;-71
2022/09/15 12:08:57;;;;;;;;;0.75;0.50;;;;;;;;4900575;29;45676;-71
2022/09/15 12:11:25;;;;;;;;;1.67;1.67;;;;;;;;4902124;28;45451;-72
2022/09/15 12:13:51;;;;;;;;;1.75;1.00;;;;;;;;4901767;28;45300;-71
2022/09/15 12:16:16;;;;;;;;;1.75;1.00;;;;;;;;4901472;28;45444;-71
2022/09/15 12:18:53;;;;;;;;;1.00;1.00;;;;;;;;4901715;28;45286;-71
2022/09/15 12:21:22;;;;;;;;;1.00;1.00;;;;;;;;4901437;28;45312;-71
2022/09/15 12:23:53;;;;;;;;;0.00;0.00;;;;;;;;4901852;29;45362;-72
2022/09/15 12:26:19;;;;;;;;;1.25;1.25;;;;;;;;4901436;29;46820;-71
2022/09/15 12:28:45;;;;;;;;;1.00;1.00;;;;;;;;4901382;28;45444;-71
2022/09/15 12:31:13;;;;;;;;;1.75;0.25;;;;;;;;4900389;29;45387;-71
2022/09/15 12:33:41;;;;;;;;;1.00;1.00;;;;;;;;4901766;29;45466;-71
2022/09/15 12:36:24;;;;;;;;;1.00;1.00;;;;;;;;4901108;29;46899;-71
2022/09/15 12:38:50;;;;;;;;;3.50;1.00;;;;;;;;4901457;28;45536;-72
2022/09/15 12:41:17;;;;;;;;;1.00;1.00;;;;;;;;4901500;29;45291;-71
2022/09/15 12:43:50;;;;;;;;;3.00;3.00;;;;;;;;4901481;28;45541;-71
2022/09/15 12:46:17;;;;;;;;;3.00;1.50;;;;;;;;4901054;28;46465;-71
2022/09/15 12:48:42;;;;;;;;;1.00;0.25;;;;;;;;4901386;28;45456;-70
2022/09/15 12:51:09;;;;;;;;;1.00;1.00;;;;;;;;4901354;29;45447;-71
2022/09/15 12:53:47;;;;;;;;;0.50;0.50;;;;;;;;4901524;28;45569;-71
2022/09/15 12:56:27;;;;;;;;;0.00;0.00;;;;;;;;4901028;28;46122;-71
2022/09/15 12:58:53;;;;;;;;;0.00;0.00;;;;;;;;4900993;28;45318;-71
2022/09/15 13:01:18;;;;;;;;;0.25;0.25;;;;;;;;4901078;28;45413;-71
2022/09/15 13:03:44;;;;;;;;;0.33;0.33;;;;;;;;4901419;29;45478;-70
2022/09/15 13:06:09;;;;;;;;;0.25;0.25;;;;;;;;4900866;29;45522;-71
2022/09/15 13:08:35;;;;;;;;;0.00;0.00;;;;;;;;4901039;29;45553;-71
2022/09/15 13:11:15;;;;;;;;;15.33;14.67;;;;;;;;4901142;29;45388;-71
2022/09/15 13:13:59;;;;;;;;;2.00;1.00;;;;;;;;4901088;29;45436;-71
2022/09/15 13:16:31;;;;;;;;;0.25;0.00;;;;;;;;4900706;28;45726;-71
2022/09/15 13:19:05;;;;;;;;;2.00;0.00;;;;;;;;4900508;28;45353;-71
2022/09/15 13:21:33;;;;;;;;;1.67;1.33;;;;;;;;4900823;28;45490;-71
2022/09/15 13:24:01;;;;;;;;;2.00;0.75;;;;;;;;4900959;28;45487;-70
2022/09/15 13:26:29;;;;;;;;;2.00;2.00;;;;;;;;4900571;29;46346;-72
2022/09/15 13:28:56;;;;;;;;;1.00;1.00;;;;;;;;4900768;28;45484;-71
2022/09/15 13:31:31;;;;;;;;;0.75;0.75;;;;;;;;4900754;28;45304;-71
2022/09/15 13:34:06;;;;;;;;;1.75;0.50;;;;;;;;4900782;29;45431;-71
2022/09/15 13:36:31;;;;;;;;;1.50;1.50;;;;;;;;4900591;29;46519;-71
2022/09/15 13:39:15;;;;;;;;;0.00;0.00;;;;;;;;4900633;29;45324;-70
2022/09/15 13:41:41;;;;;;;;;0.00;0.00;;;;;;;;4900784;28;45485;-71
2022/09/15 13:44:25;;;;;;;;;1.50;0.75;;;;;;;;4900496;29;45428;-70
2022/09/15 13:46:50;;;;;;;;;5.00;0.50;;;;;;;;4900214;29;46538;-72
2022/09/15 13:49:34;;;;;;;;;1.50;0.75;;;;;;;;4903500;29;45578;-71
2022/09/15 13:52:06;;;;;;;;;1.00;1.00;;;;;;;;4903849;29;45372;-71
2022/09/15 13:54:31;;;;;;;;;1.25;0.00;;;;;;;;4903976;28;45413;-71
2022/09/15 13:56:59;;;;;;;;;1.00;1.00;;;;;;;;4903620;29;45318;-71
2022/09/15 13:59:27;;;;;;;;;2.00;0.50;;;;;;;;4903554;29;45313;-71
2022/09/15 14:01:53;;;;;;;;;8.00;8.00;;;;;;;;4903785;28;45318;-71
2022/09/15 14:04:36;;;;;;;;;6.00;6.00;;;;;;;;4904081;29;45424;-71
2022/09/15 14:07:01;;;;;;;;;0.00;0.00;;;;;;;;4903629;28;45356;-71
2022/09/15 14:09:47;;;;;;;;;1.00;1.00;;;;;;;;4903331;29;45322;-71
2022/09/15 14:12:15;;;;;;;;;1.00;1.00;;;;;;;;4903483;28;45493;-71
2022/09/15 14:14:40;;;;;;;;;4.33;2.67;;;;;;;;4903662;28;45303;-71
2022/09/15 14:17:17;;;;;;;;;2.50;1.00;;;;;;;;4903329;29;45474;-71
2022/09/15 14:19:43;;;;;;;;;1.75;1.25;;;;;;;;4903313;28;45382;-70
2022/09/15 14:22:17;;;;;;;;;1.25;1.00;;;;;;;;4903496;28;45324;-70
2022/09/15 14:24:43;;;;;;;;;2.00;2.00;;;;;;;;4903760;29;45524;-71
2022/09/15 14:27:09;;;;;;;;;1.00;1.00;;;;;;;;4903108;28;45481;-71
2022/09/15 14:29:38;;;;;;;;;7.33;7.00;;;;;;;;4903104;28;45419;-70
2022/09/15 14:32:04;;;;;;;;;1.25;1.25;;;;;;;;4903445;28;45880;-71
2022/09/15 14:34:31;;;;;;;;;3.75;2.75;;;;;;;;4902064;29;45382;-70